DNKN/KAN METAR and TAF weather

Enter ICAO airport designator
Station Type Date Time Source
DNKN METAR 2020/06/06 10:00 UTC NOAA

DNKN 061000Z 27013KT CAVOK 33/22 Q1017 N0SIG


Station Type Date Time Source
DNKN Decoded METAR 2020/06/06 10:00 UTC NOAA

Kano, Nigeria (DNKN) 12-03N 008-32E 481M
Jun 06, 2020 - 06:00 AM EDT / 2020.06.06 1000 UTC
Wind: from the W (270 degrees) at 15 MPH (13 KT):0
Visibility: greater than 7 mile(s):0
Temperature: 91 F (33 C)
Heat index: 97.5 F (36.4 C):1
Dew Point: 71 F (22 C)
Relative Humidity: 52%
Pressure (altimeter): 30.03 in. Hg (1017 hPa)
ob: DNKN 061000Z 27013KT CAVOK 33/22 Q1017 N0SIG
cycle: 10

Station Type Date Time Source
DNKN TAF 2020/06/06 12:33 UTC NOAA

TAF DNKN 061100Z 0612/0718 25007KT 5000 TSRA SCT013 FEW023CB
BECMG 0613/0615 CAVOK
TEMPO 0709/0913 SCT013 PROB30
TEMPO 0713/0719 TS SCT013 FEW023CB

Example: see airport list